createdAt,value
2018-07-16T00:01:40.194Z,5.13
2018-07-16T00:04:08.812Z,5.33
2018-07-16T00:06:38.124Z,4.80
2018-07-16T00:09:06.692Z,4.80
2018-07-16T00:11:35.458Z,5.00
2018-07-16T00:14:04.132Z,5.47
2018-07-16T00:16:32.793Z,5.57
2018-07-16T00:19:01.371Z,5.13
2018-07-16T00:21:29.944Z,5.60
2018-07-16T00:23:58.546Z,5.07
2018-07-16T00:26:27.257Z,5.43
2018-07-16T00:28:55.928Z,5.50
2018-07-16T00:31:24.612Z,5.63
2018-07-16T00:33:53.326Z,6.10
2018-07-16T00:36:21.972Z,5.80
2018-07-16T00:38:50.570Z,6.00
2018-07-16T00:41:19.154Z,5.47
2018-07-16T00:43:47.776Z,6.27
2018-07-16T00:46:16.393Z,5.73
2018-07-16T00:48:45.231Z,5.73
2018-07-16T00:51:13.908Z,6.10
2018-07-16T00:53:42.522Z,6.23
2018-07-16T00:56:12.070Z,5.83
2018-07-16T00:58:40.681Z,6.57
2018-07-16T01:01:09.315Z,5.90
2018-07-16T01:03:39.016Z,5.97
2018-07-16T01:06:07.684Z,6.43
2018-07-16T01:08:36.258Z,5.60
2018-07-16T01:11:04.819Z,6.37
2018-07-16T01:13:33.427Z,5.50
2018-07-16T01:16:02.581Z,6.07
2018-07-16T01:18:31.478Z,5.70
2018-07-16T01:21:00.065Z,5.70
2018-07-16T01:23:28.656Z,5.80
2018-07-16T01:25:57.292Z,5.80
2018-07-16T01:28:26.803Z,5.73
2018-07-16T01:30:56.313Z,5.57
2018-07-16T01:33:24.956Z,6.27
2018-07-16T01:35:53.595Z,5.60
2018-07-16T01:38:23.534Z,6.53
2018-07-16T01:40:52.722Z,6.23
2018-07-16T01:43:21.332Z,6.30
2018-07-16T01:45:49.960Z,6.17
2018-07-16T01:48:21.117Z,6.50
2018-07-16T01:50:49.699Z,6.50
2018-07-16T01:53:18.341Z,6.40
2018-07-16T01:55:47.622Z,6.17
2018-07-16T01:58:16.483Z,6.47
2018-07-16T02:00:55.528Z,6.37
2018-07-16T02:03:27.382Z,5.93
2018-07-16T02:05:56.601Z,6.20
2018-07-16T02:08:26.033Z,6.90
2018-07-16T02:10:55.389Z,7.43
2018-07-16T02:13:24.475Z,6.60
2018-07-16T02:15:53.073Z,6.70
2018-07-16T02:18:21.682Z,6.40
2018-07-16T02:20:50.636Z,6.57
2018-07-16T02:23:19.589Z,6.50
2018-07-16T02:25:48.886Z,6.80
2018-07-16T02:28:17.448Z,6.90
2018-07-16T02:30:46.038Z,7.37
2018-07-16T02:33:14.641Z,6.17
2018-07-16T02:35:43.370Z,6.63
2018-07-16T02:38:12.002Z,5.90
2018-07-16T02:40:40.656Z,6.30
2018-07-16T02:43:09.228Z,6.03
2018-07-16T02:45:37.978Z,6.03
2018-07-16T02:48:06.633Z,6.60
2018-07-16T02:50:35.261Z,7.27
2018-07-16T02:53:03.898Z,6.97
2018-07-16T02:55:32.474Z,7.60
2018-07-16T02:58:01.049Z,7.57
2018-07-16T03:00:29.631Z,7.53
2018-07-16T03:02:58.416Z,7.63
2018-07-16T03:05:27.148Z,6.50
2018-07-16T03:07:56.411Z,6.23
2018-07-16T03:10:25.088Z,6.17
2018-07-16T03:12:53.707Z,6.47
2018-07-16T03:15:22.299Z,6.07
2018-07-16T03:17:50.972Z,5.90
2018-07-16T03:20:19.553Z,6.20
2018-07-16T03:22:48.119Z,6.70
2018-07-16T03:25:16.792Z,7.43
2018-07-16T03:27:45.360Z,7.03
2018-07-16T03:30:14.006Z,7.10
2018-07-16T03:32:43.279Z,7.27
2018-07-16T03:35:11.965Z,7.50
2018-07-16T03:37:40.551Z,7.77
2018-07-16T03:40:09.938Z,6.60
2018-07-16T03:42:38.815Z,7.20
2018-07-16T03:45:08.085Z,6.40
2018-07-16T03:47:38.020Z,7.30
2018-07-16T03:50:07.310Z,7.10
2018-07-16T03:52:35.906Z,7.03
2018-07-16T03:55:04.519Z,7.00
2018-07-16T03:57:33.209Z,6.70
2018-07-16T04:00:01.807Z,6.67
2018-07-16T04:02:30.402Z,6.30
2018-07-16T04:04:59.036Z,6.83
2018-07-16T04:07:27.889Z,7.40
2018-07-16T04:09:56.826Z,6.70
2018-07-16T04:12:26.023Z,6.57
2018-07-16T04:14:54.750Z,6.10
2018-07-16T04:17:23.616Z,6.23
2018-07-16T04:19:53.356Z,6.67
2018-07-16T04:22:22.675Z,6.73
2018-07-16T04:24:51.273Z,6.33
2018-07-16T04:27:19.926Z,6.47
2018-07-16T04:29:48.538Z,5.80
2018-07-16T04:32:17.304Z,6.03
2018-07-16T04:34:46.725Z,6.50
2018-07-16T04:37:15.339Z,5.97
2018-07-16T04:39:45.427Z,7.40
2018-07-16T04:42:14.080Z,6.50
2018-07-16T04:44:42.713Z,6.63
2018-07-16T04:47:11.363Z,6.67
2018-07-16T04:49:40.024Z,6.80
2018-07-16T04:52:10.514Z,7.27
2018-07-16T04:54:39.202Z,8.60
2018-07-16T04:57:07.936Z,7.47
2018-07-16T04:59:36.633Z,6.93
2018-07-16T05:02:05.302Z,8.00
2018-07-16T05:04:34.019Z,8.17
2018-07-16T05:07:02.645Z,7.60
2018-07-16T05:09:31.293Z,7.80
2018-07-16T05:11:59.884Z,8.00
2018-07-16T05:14:28.569Z,8.57
2018-07-16T05:16:57.275Z,6.90
2018-07-16T05:19:25.923Z,7.20
2018-07-16T05:21:54.525Z,7.27
2018-07-16T05:24:23.079Z,7.70
2018-07-16T05:26:51.700Z,7.17
2018-07-16T05:29:20.269Z,7.10
2018-07-16T05:31:49.075Z,7.10
2018-07-16T05:34:17.436Z,7.43
2018-07-16T05:36:46.078Z,7.50
2018-07-16T05:39:14.674Z,7.70
2018-07-16T05:41:43.664Z,6.90
2018-07-16T05:44:12.298Z,6.37
2018-07-16T05:46:40.879Z,7.03
2018-07-16T05:49:09.445Z,6.30
2018-07-16T05:51:38.157Z,6.90
2018-07-16T05:54:07.809Z,6.57
2018-07-16T05:56:36.481Z,7.30
2018-07-16T05:59:05.482Z,6.70
2018-07-16T06:01:34.172Z,5.70
2018-07-16T06:04:03.700Z,5.13
2018-07-16T06:06:32.703Z,6.10
2018-07-16T06:09:01.422Z,6.30
2018-07-16T06:11:30.061Z,6.80
2018-07-16T06:13:58.772Z,6.63
2018-07-16T06:16:27.531Z,5.57
2018-07-16T06:18:56.788Z,6.40
2018-07-16T06:21:25.465Z,5.47
2018-07-16T06:23:54.206Z,6.30
2018-07-16T06:26:23.061Z,6.37
2018-07-16T06:28:52.361Z,7.20
2018-07-16T06:31:21.035Z,6.83
2018-07-16T06:33:49.639Z,6.37
2018-07-16T06:36:18.237Z,6.53
2018-07-16T06:38:46.929Z,6.40
2018-07-16T06:41:15.875Z,5.43
2018-07-16T06:43:44.271Z,5.67
2018-07-16T06:46:13.212Z,6.53
2018-07-16T06:48:41.813Z,6.23
2018-07-16T06:51:10.645Z,6.37
2018-07-16T06:53:45.894Z,5.40
2018-07-16T06:56:14.768Z,5.87
2018-07-16T06:58:43.370Z,5.30
2018-07-16T07:01:11.961Z,5.80
2018-07-16T07:03:40.553Z,5.23
2018-07-16T07:06:09.551Z,5.37
2018-07-16T07:08:38.106Z,5.13
2018-07-16T07:11:06.861Z,5.30
2018-07-16T07:13:35.546Z,5.50
2018-07-16T07:16:04.191Z,5.40
2018-07-16T07:18:32.789Z,5.00
2018-07-16T07:21:01.402Z,5.23
2018-07-16T07:23:30.730Z,4.90
2018-07-16T07:25:59.349Z,4.60
2018-07-16T07:28:27.942Z,5.10
2018-07-16T07:31:01.155Z,5.33
2018-07-16T07:33:30.220Z,5.27
2018-07-16T07:36:00.269Z,5.43
2018-07-16T07:38:31.027Z,5.70
2018-07-16T07:41:00.289Z,5.10
2018-07-16T07:43:29.082Z,5.10
2018-07-16T07:45:57.997Z,4.87
2018-07-16T07:48:26.660Z,5.30
2018-07-16T07:50:56.534Z,4.80
2018-07-16T07:53:25.278Z,5.37
2018-07-16T07:55:55.960Z,5.07
2018-07-16T07:58:24.766Z,5.20
2018-07-16T08:00:56.356Z,4.97
2018-07-16T08:03:28.191Z,5.57
2018-07-16T08:06:02.222Z,5.30
2018-07-16T08:08:31.011Z,4.73
2018-07-16T08:11:04.050Z,4.50
2018-07-16T08:13:38.303Z,5.40
2018-07-16T08:16:07.296Z,5.60
2018-07-16T08:18:37.489Z,4.60
2018-07-16T08:21:07.198Z,5.13
2018-07-16T08:23:36.462Z,4.63
2018-07-16T08:26:06.117Z,5.07
2018-07-16T08:28:35.323Z,5.80
2018-07-16T08:31:04.878Z,5.00
2018-07-16T08:33:33.911Z,5.40
2018-07-16T08:36:03.655Z,5.47
2018-07-16T08:38:32.428Z,5.73
2018-07-16T08:41:01.373Z,5.20
2018-07-16T08:43:31.185Z,5.00
2018-07-16T08:46:01.164Z,5.00
2018-07-16T08:48:30.030Z,5.03
2018-07-16T08:50:59.798Z,5.20
2018-07-16T08:53:29.323Z,4.90
2018-07-16T08:55:58.313Z,4.70
2018-07-16T08:58:27.046Z,4.83
2018-07-16T09:00:56.219Z,5.33
2018-07-16T09:03:25.035Z,5.30
2018-07-16T09:06:00.562Z,5.60
2018-07-16T09:08:30.018Z,5.33
2018-07-16T09:10:58.897Z,4.90
2018-07-16T09:13:28.519Z,5.57
2018-07-16T09:15:57.547Z,5.10
2018-07-16T09:18:26.468Z,5.40
2018-07-16T09:20:55.166Z,5.37
2018-07-16T09:23:24.239Z,5.53
2018-07-16T09:25:53.631Z,5.00
2018-07-16T09:28:22.413Z,5.40
2018-07-16T09:30:51.292Z,5.10
2018-07-16T09:33:19.901Z,5.70
2018-07-16T09:35:48.746Z,5.37
2018-07-16T09:38:17.475Z,5.60
2018-07-16T09:40:46.241Z,5.03
2018-07-16T09:43:14.858Z,5.27
2018-07-16T09:45:43.439Z,4.90
2018-07-16T09:48:12.088Z,5.33
2018-07-16T09:50:40.706Z,5.50
2018-07-16T09:53:09.471Z,5.03
2018-07-16T09:55:38.176Z,4.93
2018-07-16T09:58:07.999Z,5.23
2018-07-16T10:00:40.262Z,5.30
2018-07-16T10:03:09.597Z,4.97
2018-07-16T10:05:39.252Z,5.70
2018-07-16T10:08:08.008Z,5.20
2018-07-16T10:10:36.780Z,5.60
2018-07-16T10:13:05.525Z,5.23
2018-07-16T10:15:34.147Z,5.40
2018-07-16T10:18:02.784Z,5.30
2018-07-16T10:20:31.445Z,4.63
2018-07-16T10:23:00.747Z,4.90
2018-07-16T10:25:29.381Z,5.17
2018-07-16T10:27:58.037Z,4.90
2018-07-16T10:30:26.676Z,5.60
2018-07-16T10:32:55.626Z,5.70
2018-07-16T10:35:24.386Z,5.03
2018-07-16T10:37:53.047Z,5.60
2018-07-16T10:40:21.703Z,5.20
2018-07-16T10:42:50.724Z,4.90
2018-07-16T10:45:19.356Z,5.07
2018-07-16T10:47:48.066Z,5.20
2018-07-16T10:50:16.734Z,5.30
2018-07-16T10:52:45.336Z,5.40
2018-07-16T10:55:14.883Z,5.50
2018-07-16T10:57:43.469Z,5.40
2018-07-16T11:00:13.540Z,5.47
2018-07-16T11:02:42.242Z,4.87
2018-07-16T11:05:10.927Z,4.47
2018-07-16T11:07:40.413Z,4.70
2018-07-16T11:10:09.192Z,4.93
2018-07-16T11:12:37.966Z,4.77
2018-07-16T11:15:06.758Z,4.70
2018-07-16T11:17:35.476Z,4.80
2018-07-16T11:20:04.132Z,4.90
2018-07-16T11:22:33.035Z,5.50
2018-07-16T11:25:02.047Z,5.10
2018-07-16T11:27:30.869Z,5.43
2018-07-16T11:30:07.243Z,5.83
2018-07-16T11:32:35.902Z,5.47
2018-07-16T11:35:04.906Z,5.83
2018-07-16T11:37:33.719Z,5.70
2018-07-16T11:40:02.457Z,5.47
2018-07-16T11:42:31.446Z,5.40
2018-07-16T11:45:00.139Z,5.27
2018-07-16T11:47:29.597Z,5.10
2018-07-16T11:49:58.350Z,4.97
2018-07-16T11:52:27.796Z,5.17
2018-07-16T11:54:56.477Z,5.17
2018-07-16T11:57:25.186Z,5.30
2018-07-16T11:59:53.844Z,5.23
2018-07-16T12:02:22.574Z,5.90
2018-07-16T12:04:51.228Z,5.30
2018-07-16T12:07:20.827Z,4.80
2018-07-16T12:09:49.571Z,5.60
2018-07-16T12:12:18.463Z,5.10
2018-07-16T12:14:47.573Z,5.30
2018-07-16T12:17:16.322Z,4.50
2018-07-16T12:19:45.042Z,5.10
2018-07-16T12:22:13.740Z,5.07
2018-07-16T12:24:42.432Z,4.20
2018-07-16T12:27:11.146Z,4.50
2018-07-16T12:29:39.837Z,4.50
2018-07-16T12:32:08.767Z,4.30
2018-07-16T12:34:37.556Z,4.50
2018-07-16T12:37:06.585Z,4.43
2018-07-16T12:39:35.381Z,4.20
2018-07-16T12:42:04.515Z,4.50
2018-07-16T12:44:33.275Z,4.43
2018-07-16T12:47:02.191Z,4.20
2018-07-16T12:49:30.841Z,4.90
2018-07-16T12:51:59.649Z,5.17
2018-07-16T12:54:28.745Z,4.80
2018-07-16T12:56:57.473Z,4.67
2018-07-16T12:59:27.167Z,4.37
2018-07-16T13:01:56.653Z,4.80
2018-07-16T13:04:26.486Z,4.60
2018-07-16T13:06:55.124Z,4.07
2018-07-16T13:09:24.129Z,4.20
2018-07-16T13:11:53.589Z,4.50
2018-07-16T13:14:22.251Z,4.60
2018-07-16T13:16:50.930Z,4.50
2018-07-16T13:19:20.329Z,4.47
2018-07-16T13:21:49.005Z,3.83
2018-07-16T13:24:17.596Z,3.50
2018-07-16T13:26:46.287Z,3.40
2018-07-16T13:29:14.972Z,3.50
2018-07-16T13:31:43.872Z,4.20
2018-07-16T13:34:12.929Z,4.00
2018-07-16T13:36:41.580Z,3.80
2018-07-16T13:39:11.233Z,3.80
2018-07-16T13:41:40.377Z,4.00
2018-07-16T13:44:10.391Z,3.50
2018-07-16T13:46:39.142Z,4.33
2018-07-16T13:49:08.012Z,3.90
2018-07-16T13:51:37.139Z,3.37
2018-07-16T13:54:06.050Z,3.47
2018-07-16T13:56:34.786Z,3.27
2018-07-16T13:59:03.508Z,4.00
2018-07-16T14:01:34.969Z,3.30
2018-07-16T14:04:03.785Z,3.23
2018-07-16T14:06:33.708Z,3.93
2018-07-16T14:09:03.265Z,3.63
2018-07-16T14:11:31.990Z,3.50
2018-07-16T14:14:01.351Z,3.90
2018-07-16T14:16:30.034Z,4.20
2018-07-16T14:18:59.559Z,4.80
2018-07-16T14:21:29.075Z,4.50
2018-07-16T14:24:03.662Z,4.40
2018-07-16T14:26:39.856Z,4.03
2018-07-16T14:29:20.495Z,3.90
2018-07-16T14:32:13.719Z,3.80
2018-07-16T14:34:55.142Z,3.63
2018-07-16T14:37:30.740Z,3.70
2018-07-16T14:39:59.663Z,3.80
2018-07-16T14:42:29.111Z,3.77
2018-07-16T14:44:57.824Z,3.63
2018-07-16T14:47:26.733Z,3.93
2018-07-16T14:49:56.733Z,4.33
2018-07-16T14:52:25.380Z,3.93
2018-07-16T15:32:21.221Z,3.80
2018-07-16T15:34:52.047Z,4.00
2018-07-16T15:37:20.985Z,3.63
2018-07-16T15:39:50.277Z,4.10
2018-07-16T15:42:18.870Z,3.83
2018-07-16T15:44:48.000Z,3.33
2018-07-16T15:47:16.656Z,3.53
2018-07-16T15:49:45.513Z,3.57
2018-07-16T15:52:14.110Z,3.33
2018-07-16T15:54:42.860Z,3.10
2018-07-16T15:57:11.517Z,3.20
2018-07-16T15:59:40.139Z,3.50
2018-07-16T16:02:08.748Z,3.43
2018-07-16T16:04:37.536Z,3.30
2018-07-16T16:07:08.060Z,3.00
2018-07-16T16:09:38.508Z,3.50
2018-07-16T16:12:07.449Z,3.57
2018-07-16T16:14:36.268Z,3.10
2018-07-16T16:17:05.461Z,3.50
2018-07-16T16:19:34.114Z,3.40
2018-07-16T16:22:02.755Z,3.50
2018-07-16T16:24:31.553Z,3.40
2018-07-16T16:27:00.178Z,3.90
2018-07-16T16:29:28.827Z,3.40
2018-07-16T16:31:57.615Z,3.70
2018-07-16T16:34:26.245Z,3.97
2018-07-16T16:36:55.037Z,3.60
2018-07-16T16:39:24.116Z,3.40
2018-07-16T16:41:52.806Z,3.67
2018-07-16T16:44:21.501Z,3.63
2018-07-16T16:46:50.128Z,3.30
2018-07-16T16:49:19.354Z,3.87
2018-07-16T16:51:47.963Z,3.37
2018-07-16T16:54:17.349Z,3.87
2018-07-16T16:56:46.768Z,3.77
2018-07-16T16:59:15.472Z,3.80
2018-07-16T17:01:44.170Z,4.10
2018-07-16T17:04:12.809Z,4.30
2018-07-16T17:06:41.471Z,4.53
2018-07-16T17:09:10.252Z,4.43
2018-07-16T17:11:39.022Z,4.30
2018-07-16T17:14:07.668Z,4.63
2018-07-16T17:16:36.418Z,5.00
2018-07-16T17:19:05.130Z,4.83
2018-07-16T17:21:33.777Z,4.77
2018-07-16T17:24:02.401Z,4.43
2018-07-16T17:26:31.885Z,4.50
2018-07-16T17:29:01.117Z,4.70
2018-07-16T17:31:30.001Z,4.13
2018-07-16T17:33:58.734Z,4.27
2018-07-16T17:36:27.435Z,4.20
2018-07-16T17:38:56.025Z,4.40
2018-07-16T17:41:24.790Z,3.60
2018-07-16T17:43:53.595Z,4.10
2018-07-16T17:46:22.210Z,4.10
2018-07-16T17:48:50.866Z,4.37
2018-07-16T17:51:19.499Z,3.87
2018-07-16T17:53:48.110Z,4.27
2018-07-16T17:56:16.845Z,4.53
2018-07-16T17:58:45.600Z,4.20
2018-07-16T18:01:14.720Z,4.57
2018-07-16T18:03:43.705Z,4.87
2018-07-16T18:06:12.385Z,4.27
2018-07-16T18:08:41.106Z,4.13
2018-07-16T18:11:11.014Z,4.70
2018-07-16T18:13:39.755Z,4.60
2018-07-16T18:16:08.368Z,4.43
2018-07-16T18:18:37.372Z,4.20
2018-07-16T18:21:07.688Z,4.23
2018-07-16T18:23:37.556Z,4.27
2018-07-16T18:26:06.735Z,4.40
2018-07-16T18:28:37.297Z,4.27
2018-07-16T18:31:06.049Z,4.00
2018-07-16T18:33:34.830Z,4.50
2018-07-16T18:36:03.704Z,4.60
2018-07-16T18:38:32.805Z,4.60
2018-07-16T18:41:02.390Z,4.47
2018-07-16T18:43:32.198Z,4.50
2018-07-16T18:46:00.992Z,3.60
2018-07-16T18:48:29.739Z,4.27
2018-07-16T18:50:58.524Z,3.93
2018-07-16T18:53:27.245Z,4.33
2018-07-16T18:55:56.345Z,4.43
2018-07-16T18:58:25.058Z,4.23
2018-07-16T19:00:53.926Z,4.57
2018-07-16T19:03:23.045Z,4.40
2018-07-16T19:05:52.507Z,4.20
2018-07-16T19:08:22.488Z,3.80
2018-07-16T19:10:51.357Z,3.90
2018-07-16T19:13:19.999Z,4.10
2018-07-16T19:15:48.637Z,3.70
2018-07-16T19:18:17.780Z,4.33
2018-07-16T19:20:46.472Z,4.93
2018-07-16T19:23:15.233Z,4.07
2018-07-16T19:25:44.299Z,4.23
2018-07-16T19:28:15.955Z,4.30
2018-07-16T19:30:44.890Z,4.47
2018-07-16T19:33:13.586Z,4.03
2018-07-16T19:35:42.875Z,4.37
2018-07-16T19:38:12.591Z,4.50
2018-07-16T19:40:42.379Z,4.70
2018-07-16T19:43:11.408Z,4.80
2018-07-16T19:45:40.180Z,4.80
2018-07-16T19:48:08.899Z,4.60
2018-07-16T19:50:37.696Z,4.80
2018-07-16T19:53:06.513Z,4.67
2018-07-16T19:55:35.755Z,4.47
2018-07-16T19:58:05.241Z,6.80
2018-07-16T20:00:34.951Z,5.20
2018-07-16T20:03:03.651Z,5.40
2018-07-16T20:05:33.097Z,5.57
2018-07-16T20:08:02.153Z,5.00
2018-07-16T20:10:30.894Z,5.57
2018-07-16T20:12:59.616Z,5.20
2018-07-16T20:15:28.507Z,5.00
2018-07-16T20:17:57.402Z,5.30
2018-07-16T20:20:26.108Z,5.30
2018-07-16T20:22:56.513Z,5.30
2018-07-16T20:25:25.244Z,5.60
2018-07-16T20:27:54.128Z,5.43
2018-07-16T20:30:23.757Z,4.90
2018-07-16T20:32:52.504Z,4.97
2018-07-16T20:35:22.068Z,6.03
2018-07-16T20:37:50.813Z,5.20
2018-07-16T20:40:19.910Z,5.63
2018-07-16T20:42:48.703Z,5.43
2018-07-16T20:45:17.500Z,5.53
2018-07-16T20:47:50.756Z,5.50
2018-07-16T20:50:20.916Z,5.10
2018-07-16T20:52:51.097Z,6.60
2018-07-16T20:55:19.865Z,5.63
2018-07-16T20:57:48.553Z,5.63
2018-07-16T21:00:17.321Z,5.90
2018-07-16T21:02:45.982Z,6.37
2018-07-16T21:05:14.624Z,5.73
2018-07-16T21:07:43.367Z,4.90
2018-07-16T21:10:12.650Z,5.60
2018-07-16T21:12:41.459Z,5.97
2018-07-16T21:15:10.298Z,5.90
2018-07-16T21:17:39.400Z,6.73
2018-07-16T21:20:09.419Z,5.93
2018-07-16T21:22:38.128Z,6.83
2018-07-16T21:25:08.043Z,6.60
2018-07-16T21:27:36.659Z,6.83
2018-07-16T21:30:05.876Z,6.40
2018-07-16T21:32:34.785Z,6.40
2018-07-16T21:35:03.704Z,6.50
2018-07-16T21:37:32.958Z,6.37
2018-07-16T21:40:01.910Z,5.80
2018-07-16T21:42:30.557Z,6.30
2018-07-16T21:44:59.460Z,5.63
2018-07-16T21:47:28.157Z,6.57
2018-07-16T21:49:57.388Z,5.97
2018-07-16T21:52:26.064Z,6.30
2018-07-16T21:54:55.320Z,6.40
2018-07-16T21:57:25.871Z,6.20
2018-07-16T21:59:54.573Z,5.60
2018-07-16T22:02:23.333Z,6.00
2018-07-16T22:04:52.118Z,5.63
2018-07-16T22:07:21.274Z,5.77
2018-07-16T22:09:50.038Z,6.50
2018-07-16T22:12:19.646Z,6.00
2018-07-16T22:14:49.367Z,6.40
2018-07-16T22:17:18.085Z,6.40
2018-07-16T22:19:47.695Z,5.90
2018-07-16T22:22:16.601Z,6.17
2018-07-16T22:24:46.413Z,5.70
2018-07-16T22:27:15.675Z,6.00
2018-07-16T22:29:44.316Z,6.20
2018-07-16T22:32:13.055Z,5.60
2018-07-16T22:34:43.084Z,6.30
2018-07-16T22:37:13.439Z,6.23
2018-07-16T22:39:42.874Z,5.70
2018-07-16T22:42:12.166Z,6.53
2018-07-16T22:44:41.437Z,5.70
2018-07-16T22:47:10.342Z,6.10
2018-07-16T22:49:39.110Z,5.90
2018-07-16T22:52:08.572Z,5.63
2018-07-16T22:54:37.333Z,5.60
2018-07-16T22:57:06.586Z,5.70
2018-07-16T22:59:36.536Z,5.73
2018-07-16T23:02:05.869Z,6.33
2018-07-16T23:04:34.486Z,6.30
2018-07-16T23:07:03.850Z,6.00
2018-07-16T23:09:32.621Z,5.53
2018-07-16T23:12:01.443Z,5.53
2018-07-16T23:14:31.064Z,5.90
2018-07-16T23:16:59.722Z,5.93
2018-07-16T23:19:29.797Z,5.60
2018-07-16T23:22:00.384Z,5.47
2018-07-16T23:24:29.033Z,5.53
2018-07-16T23:26:58.562Z,5.60
2018-07-16T23:29:28.023Z,6.07
2018-07-16T23:31:56.658Z,5.70
2018-07-16T23:34:25.279Z,5.90
2018-07-16T23:36:54.748Z,5.40
2018-07-16T23:39:23.377Z,6.03
2018-07-16T23:41:52.606Z,5.93
2018-07-16T23:44:21.284Z,5.83
2018-07-16T23:46:49.969Z,7.63
2018-07-16T23:49:18.595Z,6.03
2018-07-16T23:51:47.543Z,6.77
2018-07-16T23:54:17.401Z,6.37
2018-07-16T23:56:47.242Z,7.10
2018-07-16T23:59:16.001Z,6.50
